Time;durP1;ratioP1;P1;durP2;ratioP2;P2;SDS_P1;SDS_P2;PMS_P1;PMS_P2;Temp;Humidity;BMP_temperature;BMP_pressure;BME280_temperature;BME280_humidity;BME280_pressure;Samples;Min_cycle;Max_cycle;Signal;HPM_P1;HPM_P2
2022/12/24 00:01:11;;;;;;;46.68;25.40;;;20.30;87.50;;;;;;1937634;73;21068;-86
2022/12/24 00:03:43;;;;;;;35.15;26.07;;;20.30;87.50;;;;;;1921173;73;21606;-88
2022/12/24 00:06:20;;;;;;;35.83;24.67;;;20.30;87.50;;;;;;1922089;73;21686;-87
2022/12/24 00:08:51;;;;;;;35.95;24.07;;;20.30;87.50;;;;;;1947380;72;21101;-85
2022/12/24 00:11:22;;;;;;;38.05;24.40;;;20.40;87.80;;;;;;1954232;73;21104;-85
2022/12/24 00:13:53;;;;;;;38.35;26.30;;;20.40;87.80;;;;;;1963331;72;21135;-86
2022/12/24 00:16:24;;;;;;;44.27;30.65;;;20.40;87.70;;;;;;1954881;73;21130;-85
2022/12/24 00:18:55;;;;;;;52.08;33.98;;;20.40;87.70;;;;;;1917519;73;21053;-86
2022/12/24 00:21:27;;;;;;;50.38;35.68;;;20.50;87.70;;;;;;1899770;75;21591;-84
2022/12/24 00:23:58;;;;;;;45.58;31.25;;;20.50;87.60;;;;;;1929670;73;21122;-86
2022/12/24 00:26:28;;;;;;;39.98;30.43;;;20.50;87.40;;;;;;1942513;73;21107;-86
2022/12/24 00:29:00;;;;;;;53.73;31.40;;;20.50;87.40;;;;;;1864315;75;21084;-85
2022/12/24 00:31:31;;;;;;;44.73;31.57;;;20.60;87.40;;;;;;1965667;72;21131;-85
2022/12/24 00:34:02;;;;;;;48.95;31.93;;;20.60;87.30;;;;;;1960313;73;21228;-86
2022/12/24 00:36:33;;;;;;;35.25;26.85;;;20.60;87.30;;;;;;1962012;72;21107;-85
2022/12/24 00:39:05;;;;;;;38.10;27.10;;;20.70;87.10;;;;;;1952947;73;21118;-85
2022/12/24 00:41:36;;;;;;;46.73;33.33;;;20.70;87.10;;;;;;1914083;73;21080;-85
2022/12/24 00:44:13;;;;;;;37.58;29.72;;;20.70;86.80;;;;;;1926778;74;21060;-85
2022/12/24 00:46:41;;;;;;;39.48;29.12;;;20.80;86.80;;;;;;1946816;73;21127;-84
2022/12/24 00:49:13;;;;;;;34.45;25.15;;;20.80;86.60;;;;;;1950491;73;21171;-84
2022/12/24 00:51:45;;;;;;;33.35;23.92;;;20.90;86.50;;;;;;1959699;73;21124;-84
2022/12/24 00:54:16;;;;;;;28.73;22.87;;;20.90;86.50;;;;;;1963328;72;21093;-87
2022/12/24 00:56:46;;;;;;;32.75;23.10;;;20.90;86.20;;;;;;1933944;73;21165;-83
2022/12/24 00:59:18;;;;;;;32.23;22.62;;;21.00;86.20;;;;;;1952776;73;21041;-87
2022/12/24 01:01:49;;;;;;;30.77;22.93;;;21.00;86.10;;;;;;1951539;73;21205;-86
2022/12/24 01:07:08;;;;;;;35.43;22.58;;;21.10;85.90;;;;;;1963274;72;21060;-85
2022/12/24 01:09:39;;;;;;;27.60;21.15;;;21.20;86.00;;;;;;1927332;74;21178;-85
2022/12/24 01:12:11;;;;;;;32.93;22.58;;;21.20;85.50;;;;;;1942260;73;21139;-85
2022/12/24 01:14:42;;;;;;;34.63;22.02;;;21.30;85.70;;;;;;1948455;73;21080;-85
2022/12/24 01:17:13;;;;;;;29.65;20.15;;;21.40;85.40;;;;;;1945009;73;21107;-86
2022/12/24 01:19:44;;;;;;;32.58;22.20;;;21.40;85.50;;;;;;1953918;73;21132;-86
2022/12/24 01:22:15;;;;;;;30.90;21.40;;;21.50;85.10;;;;;;1949587;73;21067;-86
2022/12/24 01:24:46;;;;;;;29.63;21.20;;;21.60;84.90;;;;;;1948784;73;21107;-85
2022/12/24 01:27:17;;;;;;;30.75;21.05;;;21.60;84.70;;;;;;1942620;73;21074;-85
2022/12/24 01:29:51;;;;;;;30.52;20.95;;;21.60;84.60;;;;;;1950626;73;21127;-85
2022/12/24 01:32:22;;;;;;;26.82;20.23;;;21.70;84.40;;;;;;1956152;73;21112;-85
2022/12/24 01:34:53;;;;;;;30.15;19.15;;;21.70;85.10;;;;;;1930901;73;21147;-85
2022/12/24 01:37:25;;;;;;;29.63;21.30;;;21.70;84.10;;;;;;1904413;74;21179;-86
2022/12/24 01:43:22;;;;;;;25.72;18.65;;;21.70;83.80;;;;;;1919779;73;21187;-85
2022/12/24 01:45:53;;;;;;;30.57;18.77;;;21.70;83.90;;;;;;1930032;73;21083;-86
2022/12/24 01:48:35;;;;;;;27.48;19.80;;;21.80;83.50;;;;;;1906007;74;21068;-86
2022/12/24 01:51:39;;;;;;;26.23;19.67;;;21.80;83.40;;;;;;1875715;75;21025;-86
2022/12/24 01:54:24;;;;;;;34.20;21.23;;;21.80;83.40;;;;;;1848388;76;21121;-87
2022/12/24 01:57:03;;;;;;;27.07;20.08;;;21.90;83.50;;;;;;1926211;74;21056;-83
2022/12/24 01:59:36;;;;;;;25.15;18.80;;;21.90;83.00;;;;;;1927498;72;21076;-70
2022/12/24 02:02:08;;;;;;;23.95;18.00;;;22.00;83.10;;;;;;1960919;72;21672;-72
2022/12/24 02:04:45;;;;;;;25.60;18.42;;;22.00;83.00;;;;;;1951766;72;21560;-71
2022/12/24 02:07:17;;;;;;;25.85;19.30;;;22.10;83.00;;;;;;1948940;72;21092;-71
2022/12/24 02:09:55;;;;;;;26.40;18.07;;;22.10;82.80;;;;;;1945969;72;21115;-71
2022/12/24 02:12:29;;;;;;;24.43;16.20;;;22.10;82.70;;;;;;1951867;72;21148;-70
2022/12/24 02:15:01;;;;;;;22.07;15.08;;;22.20;82.30;;;;;;1951087;72;21084;-70
2022/12/24 02:17:53;;;;;;;26.27;16.62;;;22.30;81.90;;;;;;1951871;72;21471;-71
2022/12/24 02:20:49;;;;;;;22.15;14.80;;;22.30;82.00;;;;;;1950761;73;21103;-71
2022/12/24 02:23:38;;;;;;;19.27;14.70;;;22.30;81.50;;;;;;1931651;73;21104;-71
2022/12/24 02:26:33;;;;;;;24.00;15.38;;;22.40;81.20;;;;;;1896941;73;21120;-72
2022/12/24 02:29:29;;;;;;;21.97;14.57;;;22.40;81.30;;;;;;1907002;74;21073;-72
2022/12/24 02:32:12;;;;;;;22.62;14.68;;;22.50;81.00;;;;;;1947944;72;21189;-72
2022/12/24 02:34:49;;;;;;;22.65;14.80;;;22.60;80.90;;;;;;1948402;72;21074;-72
2022/12/24 02:37:34;;;;;;;29.67;15.85;;;22.60;80.90;;;;;;1949732;73;21116;-71
2022/12/24 02:40:24;;;;;;;22.13;15.85;;;22.70;80.70;;;;;;1918381;74;21061;-71
2022/12/24 02:43:00;;;;;;;25.90;16.30;;;22.70;80.60;;;;;;1918303;74;21172;-72
2022/12/24 02:45:35;;;;;;;20.85;13.75;;;22.80;80.50;;;;;;1924403;74;21825;-72
2022/12/24 02:48:07;;;;;;;20.60;14.43;;;22.80;79.80;;;;;;1923880;74;21647;-72
2022/12/24 02:50:38;;;;;;;23.25;13.55;;;22.90;79.50;;;;;;1949641;72;21061;-71
2022/12/24 02:53:10;;;;;;;20.80;13.78;;;23.00;79.40;;;;;;1948569;72;21175;-70
2022/12/24 02:56:09;;;;;;;17.20;13.95;;;23.00;79.30;;;;;;1948880;73;21126;-72
2022/12/24 02:58:52;;;;;;;18.05;12.25;;;23.10;79.10;;;;;;1948691;72;21065;-71
2022/12/24 03:01:45;;;;;;;14.73;12.03;;;23.10;78.70;;;;;;1951386;72;21573;-71
2022/12/24 03:04:40;;;;;;;19.62;12.40;;;23.20;77.80;;;;;;1905303;74;21131;-71
2022/12/24 03:07:17;;;;;;;18.85;11.73;;;23.20;77.80;;;;;;1874727;75;21549;-70
2022/12/24 03:10:11;;;;;;;18.40;12.30;;;23.30;77.50;;;;;;1924106;74;21112;-71
2022/12/24 03:12:49;;;;;;;23.60;13.25;;;23.40;77.40;;;;;;1882030;75;21166;-72
2022/12/24 03:15:21;;;;;;;;;;;23.40;76.50;;;;;;1928525;73;21202;-72
2022/12/24 03:17:55;;;;;;;16.87;11.93;;;23.50;76.80;;;;;;1957149;72;20175;-71
2022/12/24 03:20:28;;;;;;;19.52;13.03;;;23.60;76.60;;;;;;1971294;72;21155;-72
2022/12/24 03:23:00;;;;;;;20.88;13.08;;;23.70;76.30;;;;;;1954414;72;21689;-72
2022/12/24 03:25:32;;;;;;;17.37;12.47;;;23.70;76.20;;;;;;1955081;72;21180;-69
2022/12/24 03:28:08;;;;;;;17.77;11.80;;;23.80;76.00;;;;;;1949460;72;21240;-71
2022/12/24 03:30:45;;;;;;;16.87;11.45;;;23.90;75.40;;;;;;1958154;72;21072;-71
2022/12/24 03:33:16;;;;;;;18.63;11.60;;;23.90;75.30;;;;;;1947986;72;21148;-70
2022/12/24 03:35:49;;;;;;;18.37;11.33;;;23.90;75.30;;;;;;1940042;73;21040;-71
2022/12/24 03:38:21;;;;;;;14.28;11.10;;;24.00;75.10;;;;;;1943450;73;21126;-71
2022/12/24 03:40:52;;;;;;;15.25;11.10;;;24.00;74.40;;;;;;1943254;73;21119;-71
2022/12/24 03:43:23;;;;;;;16.95;10.98;;;24.10;74.80;;;;;;1922836;73;21075;-70
2022/12/24 03:45:54;;;;;;;19.40;11.50;;;24.10;74.80;;;;;;1941348;73;21176;-71
2022/12/24 03:48:25;;;;;;;16.70;11.30;;;24.20;74.30;;;;;;1942081;73;21172;-72
2022/12/24 03:50:58;;;;;;;15.53;9.95;;;24.30;74.20;;;;;;1948618;73;21146;-72
2022/12/24 03:53:30;;;;;;;13.38;10.15;;;24.40;73.50;;;;;;1940195;73;21191;-72
2022/12/24 03:56:01;;;;;;;13.48;9.45;;;24.50;73.10;;;;;;1947725;73;21407;-71
2022/12/24 03:58:32;;;;;;;16.12;10.05;;;24.60;73.00;;;;;;1953169;72;21119;-71
2022/12/24 04:01:03;;;;;;;19.37;10.53;;;24.70;72.50;;;;;;1923479;73;21177;-71
2022/12/24 04:03:34;;;;;;;12.65;9.13;;;24.80;72.20;;;;;;1949047;73;21150;-71
2022/12/24 04:06:13;;;;;;;15.03;8.95;;;24.80;72.30;;;;;;1943918;73;21075;-72
2022/12/24 04:08:45;;;;;;;17.50;9.18;;;24.90;71.30;;;;;;1943334;73;21512;-71
2022/12/24 04:11:17;;;;;;;14.40;9.73;;;25.00;71.00;;;;;;1941952;72;21555;-71
2022/12/24 04:13:48;;;;;;;13.10;9.60;;;25.10;70.30;;;;;;1945990;72;21151;-72
2022/12/24 04:16:20;;;;;;;15.53;9.68;;;25.20;70.70;;;;;;1954609;72;21064;-72
2022/12/24 04:18:52;;;;;;;11.20;8.28;;;25.30;70.60;;;;;;1920344;73;21642;-71
2022/12/24 04:21:23;;;;;;;15.63;9.05;;;25.40;69.90;;;;;;1926029;73;21098;-72
2022/12/24 04:23:55;;;;;;;14.45;8.70;;;25.50;69.70;;;;;;1918843;73;21056;-71
2022/12/24 04:26:26;;;;;;;11.63;8.13;;;25.50;69.20;;;;;;1952762;73;21108;-71
2022/12/24 04:28:57;;;;;;;14.10;9.50;;;25.60;69.10;;;;;;1947985;73;21124;-72
2022/12/24 04:31:27;;;;;;;28.12;9.00;;;25.80;68.10;;;;;;1918165;73;21599;-72
2022/12/24 04:33:59;;;;;;;11.83;8.18;;;25.90;68.00;;;;;;1947477;73;21092;-72
2022/12/24 04:36:32;;;;;;;10.00;7.00;;;26.00;67.10;;;;;;1947214;72;21611;-72
2022/12/24 04:39:03;;;;;;;9.55;6.92;;;26.00;66.10;;;;;;1935702;73;21086;-72
2022/12/24 04:41:34;;;;;;;10.43;7.55;;;26.10;66.50;;;;;;1945237;73;21123;-72
2022/12/24 04:44:05;;;;;;;14.53;8.23;;;26.10;66.00;;;;;;1947803;73;21104;-73
2022/12/24 04:46:36;;;;;;;14.13;8.98;;;26.10;66.40;;;;;;1946482;73;21134;-73
2022/12/24 04:49:08;;;;;;;13.10;8.65;;;26.10;66.00;;;;;;1950726;73;21072;-72
2022/12/24 04:51:39;;;;;;;12.33;8.08;;;26.00;66.50;;;;;;1912124;73;21100;-71
2022/12/24 04:54:09;;;;;;;11.75;7.65;;;26.00;66.70;;;;;;1916916;73;21855;-72
2022/12/24 04:56:40;;;;;;;10.38;6.47;;;26.10;66.00;;;;;;1931595;73;21587;-72
2022/12/24 04:59:11;;;;;;;17.45;7.80;;;26.30;65.50;;;;;;1885564;74;21112;-71
2022/12/24 05:01:43;;;;;;;10.72;7.08;;;26.40;65.50;;;;;;1918905;73;21776;-70
2022/12/24 05:04:14;;;;;;;9.70;7.25;;;26.40;65.80;;;;;;1924884;73;21167;-70
2022/12/24 05:06:45;;;;;;;10.88;7.15;;;26.60;65.10;;;;;;1937434;73;21504;-71
2022/12/24 05:09:16;;;;;;;9.38;6.95;;;26.60;64.70;;;;;;1919322;73;21107;-71
2022/12/24 05:11:51;;;;;;;9.43;7.47;;;26.70;64.50;;;;;;1951658;72;21158;-70
2022/12/24 05:14:28;;;;;;;8.73;6.92;;;26.70;64.50;;;;;;1955066;72;21599;-72
2022/12/24 05:17:00;;;;;;;10.45;6.80;;;26.70;64.60;;;;;;1952183;72;21175;-71
2022/12/24 05:19:31;;;;;;;11.70;7.30;;;26.60;64.50;;;;;;1971135;72;21185;-70
2022/12/24 05:27:42;;;;;;;11.43;7.47;;;26.90;64.50;;;;;;1945098;73;21093;-72
2022/12/24 05:30:14;;;;;;;9.83;7.78;;;26.80;64.70;;;;;;1949791;73;21138;-71
2022/12/24 05:32:45;;;;;;;13.93;7.53;;;27.00;64.40;;;;;;1944831;73;21108;-72
2022/12/24 05:35:17;;;;;;;14.87;7.05;;;27.00;64.00;;;;;;1931690;74;21136;-72
2022/12/24 05:37:49;;;;;;;7.85;5.67;;;27.10;63.60;;;;;;1933814;74;21142;-71
2022/12/24 05:40:25;;;;;;;9.38;6.20;;;27.20;62.70;;;;;;1943393;74;21158;-84
2022/12/24 05:43:02;;;;;;;9.15;5.80;;;27.30;62.30;;;;;;1936243;73;21151;-86
2022/12/24 05:46:01;;;;;;;9.98;5.90;;;27.30;62.20;;;;;;1942206;74;21677;-86
2022/12/24 05:48:36;;;;;;;10.08;5.95;;;27.30;62.30;;;;;;1938702;74;21201;-86
2022/12/24 05:51:12;;;;;;;10.25;6.20;;;27.20;63.10;;;;;;1939945;74;21205;-86
2022/12/24 05:53:46;;;;;;;11.22;6.08;;;27.30;63.10;;;;;;1926902;74;21575;-86
2022/12/24 05:56:19;;;;;;;10.00;5.97;;;27.30;62.50;;;;;;1934645;74;21065;-84
2022/12/24 05:58:54;;;;;;;11.10;5.70;;;27.40;62.10;;;;;;1922780;74;21104;-86
2022/12/24 06:01:25;;;;;;;7.55;6.15;;;27.40;61.80;;;;;;1922063;74;21204;-84
2022/12/24 06:03:57;;;;;;;8.65;5.90;;;27.30;61.90;;;;;;1939013;74;21123;-87
2022/12/24 06:06:30;;;;;;;9.53;5.87;;;27.30;61.80;;;;;;1938783;74;21061;-87
2022/12/24 06:09:01;;;;;;;11.68;5.70;;;27.30;62.40;;;;;;1928193;74;21489;-86
2022/12/24 06:11:32;;;;;;;10.10;6.30;;;27.40;61.90;;;;;;1935980;74;21092;-85
2022/12/24 06:14:03;;;;;;;8.30;5.25;;;27.40;61.00;;;;;;1938435;74;21213;-86
2022/12/24 06:16:34;;;;;;;11.33;5.47;;;27.40;61.10;;;;;;1937851;73;21081;-85
2022/12/24 06:19:05;;;;;;;10.80;5.33;;;27.40;61.90;;;;;;1940111;74;21116;-86
2022/12/24 06:21:39;;;;;;;8.65;5.30;;;27.40;62.70;;;;;;1935894;74;21068;-85
2022/12/24 06:24:10;;;;;;;7.25;5.40;;;27.40;62.70;;;;;;1929410;74;21598;-84
2022/12/24 06:26:42;;;;;;;7.15;5.83;;;27.50;61.30;;;;;;1932446;74;21237;-86
2022/12/24 06:29:13;;;;;;;7.33;5.50;;;27.50;61.10;;;;;;1930730;74;21569;-87
2022/12/24 06:31:44;;;;;;;7.87;5.58;;;27.50;61.20;;;;;;1925729;74;21068;-86
2022/12/24 06:34:19;;;;;;;8.33;5.65;;;27.60;61.50;;;;;;1953695;72;21115;-88
2022/12/24 06:36:52;;;;;;;9.08;5.37;;;27.60;60.70;;;;;;1952728;73;21048;-87
2022/12/24 06:39:36;;;;;;;9.65;5.12;;;27.70;61.20;;;;;;1959952;73;21034;-85
2022/12/24 06:42:36;;;;;;;8.50;4.97;;;27.70;60.60;;;;;;1937082;73;21204;-85
2022/12/24 06:45:12;;;;;;;7.00;4.78;;;27.70;60.30;;;;;;1898144;74;21077;-88
2022/12/24 06:47:43;;;;;;;6.75;4.62;;;27.70;60.30;;;;;;1937529;74;21944;-85
2022/12/24 06:50:21;;;;;;;8.53;4.45;;;27.70;60.20;;;;;;1913840;74;21069;-84
2022/12/24 06:52:51;;;;;;;13.38;5.50;;;27.70;60.10;;;;;;1933181;74;21136;-87
2022/12/24 06:55:22;;;;;;;10.05;5.60;;;27.60;60.60;;;;;;1932669;74;21109;-87
2022/12/24 06:57:55;;;;;;;11.60;6.25;;;27.50;61.20;;;;;;1935116;74;21042;-87
2022/12/24 07:00:30;;;;;;;10.68;4.92;;;27.50;61.30;;;;;;1936587;73;21069;-86
2022/12/24 07:03:01;;;;;;;10.90;4.42;;;27.50;60.70;;;;;;1933469;74;21076;-85
2022/12/24 07:05:32;;;;;;;7.62;5.15;;;27.50;60.60;;;;;;1913386;74;21567;-86
2022/12/24 07:08:03;;;;;;;9.13;4.53;;;27.50;60.20;;;;;;1934619;74;21131;-85
2022/12/24 07:10:41;;;;;;;7.05;5.22;;;27.40;60.80;;;;;;1924837;73;21135;-85
2022/12/24 07:13:13;;;;;;;7.90;5.17;;;27.40;60.70;;;;;;1928411;73;21247;-87
2022/12/24 07:15:44;;;;;;;6.92;5.03;;;27.40;60.70;;;;;;1940820;73;21225;-88
2022/12/24 07:18:15;;;;;;;8.08;4.67;;;27.30;60.70;;;;;;1906686;74;21213;-86
2022/12/24 07:20:46;;;;;;;9.00;4.90;;;27.40;60.60;;;;;;1927271;73;21100;-87
2022/12/24 07:23:23;;;;;;;9.28;4.40;;;27.40;60.00;;;;;;1926543;72;21054;-85
2022/12/24 07:26:11;;;;;;;;;;;;;;;;;;;;;
2022/12/24 07:28:42;;;;;;;8.40;4.92;;;27.50;59.70;;;;;;1870852;76;21193;-86
2022/12/24 07:31:14;;;;;;;11.18;5.03;;;27.60;59.80;;;;;;1904736;74;21098;-86
2022/12/24 07:33:58;;;;;;;8.53;5.05;;;27.60;59.60;;;;;;1909318;73;21142;-86
2022/12/24 07:36:27;;;;;;;9.70;4.90;;;27.60;59.60;;;;;;1902445;75;21597;-86
2022/12/24 07:39:01;;;;;;;9.90;5.00;;;27.70;59.50;;;;;;1910906;75;21131;-85
2022/12/24 07:41:32;;;;;;;8.98;5.60;;;27.70;59.70;;;;;;1952391;72;21103;-86
2022/12/24 07:44:09;;;;;;;9.28;5.05;;;27.70;60.00;;;;;;1954388;72;21222;-87
2022/12/24 07:46:38;;;;;;;8.98;4.80;;;27.70;59.60;;;;;;1885052;75;21132;-87
2022/12/24 07:49:11;;;;;;;10.75;5.47;;;27.70;59.70;;;;;;1956759;72;21163;-87
2022/12/24 07:51:43;;;;;;;6.78;4.67;;;27.70;59.30;;;;;;1949393;73;21081;-86
2022/12/24 07:54:17;;;;;;;7.90;4.80;;;27.70;59.30;;;;;;1925510;74;21219;-87
2022/12/24 07:56:49;;;;;;;8.80;5.53;;;27.60;59.70;;;;;;1956581;72;21169;-90
2022/12/24 07:59:20;;;;;;;9.08;5.20;;;27.70;59.80;;;;;;1956420;72;21095;-85
2022/12/24 08:01:51;;;;;;;8.58;5.08;;;27.60;59.50;;;;;;1949605;72;21249;-86
2022/12/24 08:04:25;;;;;;;9.53;5.67;;;27.60;59.80;;;;;;1956040;72;21124;-86
2022/12/24 08:07:00;;;;;;;7.90;4.58;;;27.50;59.80;;;;;;1948407;72;21209;-88
2022/12/24 08:09:35;;;;;;;9.68;5.10;;;27.40;60.00;;;;;;1951252;72;21200;-90
2022/12/24 08:12:13;;;;;;;8.63;5.65;;;27.40;60.30;;;;;;1952107;72;21136;-88
2022/12/24 08:14:45;;;;;;;9.15;5.33;;;27.30;60.50;;;;;;1951810;72;21107;-88
2022/12/24 08:17:26;;;;;;;8.00;5.12;;;27.30;60.90;;;;;;1953251;72;21260;-85
2022/12/24 08:20:09;;;;;;;9.13;5.17;;;27.40;60.10;;;;;;1951014;73;21142;-86
2022/12/24 08:22:41;;;;;;;8.68;4.90;;;27.40;60.20;;;;;;1930734;74;21639;-88
2022/12/24 08:25:14;;;;;;;8.30;5.03;;;27.40;60.40;;;;;;1954764;72;21173;-86
2022/12/24 08:27:51;;;;;;;6.40;4.85;;;27.40;59.60;;;;;;1947651;73;21501;-88
2022/12/24 08:30:24;;;;;;;8.63;5.40;;;27.50;59.80;;;;;;1954238;72;21214;-87
2022/12/24 08:32:57;;;;;;;8.28;5.00;;;27.40;60.50;;;;;;1956667;72;21837;-86
2022/12/24 08:35:30;;;;;;;8.38;5.42;;;27.40;60.40;;;;;;1955861;72;21158;-87
2022/12/24 08:38:02;;;;;;;8.90;5.72;;;27.50;60.10;;;;;;1952982;72;21483;-84
2022/12/24 08:40:33;;;;;;;8.90;4.90;;;27.50;60.00;;;;;;1926640;73;21156;-84
2022/12/24 08:43:10;;;;;;;9.00;5.00;;;27.50;59.90;;;;;;1917188;74;21122;-87
2022/12/24 08:45:48;;;;;;;8.53;5.47;;;27.40;60.00;;;;;;1926133;74;21152;-87
2022/12/24 08:48:22;;;;;;;9.83;5.03;;;27.40;60.10;;;;;;1952394;72;21967;-88
2022/12/24 08:50:53;;;;;;;8.80;5.78;;;27.40;60.10;;;;;;1954394;72;21119;-88
2022/12/24 08:53:25;;;;;;;10.75;5.58;;;27.40;60.10;;;;;;1907621;73;21128;-88
2022/12/24 08:56:04;;;;;;;7.55;5.92;;;27.40;60.20;;;;;;1947741;72;21147;-86
2022/12/24 08:58:36;;;;;;;7.10;5.10;;;27.40;60.50;;;;;;1954340;72;21068;-87
2022/12/24 09:01:15;;;;;;;9.28;5.67;;;27.40;60.20;;;;;;1956522;72;21065;-87
2022/12/24 09:03:47;;;;;;;9.23;6.08;;;27.40;60.30;;;;;;1940436;73;21020;-87
2022/12/24 09:06:18;;;;;;;8.88;5.28;;;27.40;60.60;;;;;;1959402;72;21117;-87
2022/12/24 09:08:49;;;;;;;7.25;5.87;;;27.30;60.90;;;;;;1952407;72;21044;-85
2022/12/24 09:11:39;;;;;;;10.48;5.87;;;27.30;60.90;;;;;;1958193;72;21126;-89
2022/12/24 09:14:10;;;;;;;7.75;5.67;;;27.30;61.10;;;;;;1864280;75;21083;-88
2022/12/24 09:16:41;;;;;;;7.85;6.17;;;27.30;60.90;;;;;;1862846;76;21088;-88
2022/12/24 09:19:12;;;;;;;9.65;6.25;;;27.20;61.10;;;;;;1863727;75;21353;-87
2022/12/24 09:21:43;;;;;;;7.60;5.75;;;27.20;61.30;;;;;;1864273;75;21184;-86
2022/12/24 09:24:15;;;;;;;7.17;5.67;;;27.20;61.60;;;;;;1863882;76;21191;-87
2022/12/24 09:26:48;;;;;;;12.18;6.10;;;27.20;61.70;;;;;;1864479;75;21090;-86
2022/12/24 09:29:20;;;;;;;11.33;6.33;;;27.10;61.40;;;;;;1870805;75;21130;-88
2022/12/24 09:32:03;;;;;;;11.28;6.37;;;27.00;61.60;;;;;;1855579;76;21100;-87
2022/12/24 09:34:26;;;;;;;12.98;7.33;;;27.00;61.50;;;;;;1864408;76;21081;-88
2022/12/24 09:37:01;;;;;;;13.72;7.42;;;26.90;61.80;;;;;;1864738;76;21144;-88
2022/12/24 09:39:31;;;;;;;13.05;8.83;;;26.90;62.10;;;;;;1861809;76;21109;-87
2022/12/24 09:42:13;;;;;;;14.85;9.08;;;26.80;62.10;;;;;;1860028;76;21272;-88
2022/12/24 09:44:49;;;;;;;12.60;7.55;;;26.80;62.30;;;;;;1853141;76;21106;-87
2022/12/24 09:47:42;;;;;;;12.30;8.25;;;26.70;62.30;;;;;;1861931;75;21114;-87
2022/12/24 09:50:28;;;;;;;13.58;8.28;;;26.80;62.50;;;;;;1860900;75;21586;-87
2022/12/24 09:53:01;;;;;;;12.93;8.93;;;26.70;62.70;;;;;;1842728;76;21183;-88
2022/12/24 09:55:35;;;;;;;13.25;9.08;;;26.70;62.60;;;;;;1854477;76;21144;-90
2022/12/24 09:58:09;;;;;;;14.53;10.00;;;26.60;62.90;;;;;;1856721;75;21248;-87
2022/12/24 10:00:39;;;;;;;13.30;8.08;;;26.60;63.10;;;;;;1834683;77;21191;-90
2022/12/24 10:03:17;;;;;;;14.80;8.80;;;26.50;63.00;;;;;;1865991;75;21172;-89
2022/12/24 10:06:08;;;;;;;12.50;8.10;;;26.50;63.30;;;;;;1863720;75;21193;-88
2022/12/24 10:08:45;;;;;;;11.43;7.37;;;26.50;63.50;;;;;;1858308;75;21604;-87
2022/12/24 10:11:21;;;;;;;11.90;7.47;;;26.40;63.50;;;;;;1804874;78;21555;-90
2022/12/24 10:13:54;;;;;;;15.00;7.85;;;26.40;63.70;;;;;;1870589;75;21174;-89
2022/12/24 10:16:34;;;;;;;12.85;7.67;;;26.40;63.90;;;;;;1902751;74;21197;-90
2022/12/24 10:19:16;;;;;;;12.98;8.75;;;26.30;64.00;;;;;;1857287;76;21119;-88
2022/12/24 10:21:55;;;;;;;14.03;8.70;;;26.30;64.20;;;;;;1899395;74;21088;-88
2022/12/24 10:24:33;;;;;;;17.40;10.15;;;26.30;64.40;;;;;;1897083;74;21219;-88
2022/12/24 10:27:15;;;;;;;15.15;8.88;;;26.20;64.50;;;;;;1903639;74;21082;-88
2022/12/24 10:29:52;;;;;;;13.10;8.75;;;26.20;64.60;;;;;;1898164;74;21136;-86
2022/12/24 10:32:32;;;;;;;14.03;8.85;;;26.20;64.80;;;;;;1899462;74;21211;-90
2022/12/24 10:35:32;;;;;;;14.25;9.40;;;26.10;64.90;;;;;;1902226;74;21204;-88
2022/12/24 10:38:03;;;;;;;15.38;9.70;;;26.10;65.00;;;;;;1900475;74;21138;-88
2022/12/24 10:40:49;;;;;;;15.23;9.78;;;26.00;65.10;;;;;;1905765;74;21149;-88
2022/12/24 10:43:25;;;;;;;18.77;10.93;;;26.00;65.30;;;;;;1900370;74;21106;-89
2022/12/24 10:46:01;;;;;;;15.77;11.33;;;26.00;65.60;;;;;;1899687;73;21061;-88
2022/12/24 10:48:38;;;;;;;14.73;9.93;;;25.90;65.50;;;;;;1905673;74;21042;-90
2022/12/24 10:51:32;;;;;;;19.57;11.53;;;25.90;65.90;;;;;;1902486;73;21224;-88
2022/12/24 10:54:06;;;;;;;23.35;11.93;;;25.90;65.90;;;;;;1910963;74;21268;-89
2022/12/24 10:56:45;;;;;;;19.37;11.77;;;25.90;66.10;;;;;;1902518;74;21018;-90
2022/12/24 10:59:37;;;;;;;;;;;25.90;66.00;;;;;;1902589;74;21115;-89
2022/12/24 11:02:09;;;;;;;21.70;14.33;;;25.80;66.00;;;;;;1893047;74;20259;-87
2022/12/24 11:04:42;;;;;;;23.25;15.72;;;25.80;66.00;;;;;;1875677;74;21666;-87
2022/12/24 11:07:17;;;;;;;22.80;13.18;;;25.80;66.30;;;;;;1900309;74;21196;-90
2022/12/24 11:10:03;;;;;;;21.65;12.30;;;25.80;66.30;;;;;;1886486;75;21087;-88
2022/12/24 11:12:37;;;;;;;21.20;11.55;;;25.70;66.20;;;;;;1885137;74;21127;-89
2022/12/24 11:15:33;;;;;;;16.73;11.10;;;25.70;66.40;;;;;;1891894;74;21115;-88
2022/12/24 11:18:18;;;;;;;16.15;9.55;;;25.70;66.50;;;;;;1890529;74;21139;-89
2022/12/24 11:20:52;;;;;;;18.12;10.98;;;25.60;66.50;;;;;;1888109;74;21134;-89
2022/12/24 11:23:23;;;;;;;14.78;10.00;;;25.60;66.80;;;;;;1892889;74;21084;-90
2022/12/24 11:25:55;;;;;;;16.27;10.13;;;25.60;66.90;;;;;;1889983;75;21547;-89
2022/12/24 11:28:33;;;;;;;15.28;9.98;;;25.50;67.10;;;;;;1914569;74;21248;-88
2022/12/24 11:31:18;;;;;;;16.20;9.05;;;25.40;67.30;;;;;;1894935;75;21190;-89
2022/12/24 11:33:54;;;;;;;15.45;9.55;;;25.40;67.40;;;;;;1898240;74;21060;-89
2022/12/24 11:36:26;;;;;;;15.87;8.37;;;25.30;67.70;;;;;;1899918;74;21118;-90
2022/12/24 11:38:59;;;;;;;13.90;9.75;;;25.30;67.80;;;;;;1889587;75;21154;-88
2022/12/24 11:41:39;;;;;;;25.88;17.23;;;25.20;67.90;;;;;;1861564;74;21161;-89
2022/12/24 11:44:11;;;;;;;31.30;18.12;;;25.20;68.20;;;;;;1889747;74;21064;-88
2022/12/24 11:46:55;;;;;;;28.12;15.30;;;25.10;68.30;;;;;;1887813;74;21056;-88
2022/12/24 11:49:29;;;;;;;21.52;12.70;;;25.10;68.40;;;;;;1889903;74;21104;-87
2022/12/24 11:52:18;;;;;;;19.30;10.63;;;25.10;68.70;;;;;;1891454;74;21059;-91
2022/12/24 11:55:03;;;;;;;15.83;8.88;;;25.00;68.70;;;;;;1853698;76;21087;-89
2022/12/24 11:57:46;;;;;;;18.55;10.20;;;25.00;68.90;;;;;;1854974;76;21060;-89
2022/12/24 12:00:18;;;;;;;26.35;15.13;;;24.90;69.10;;;;;;1862862;75;21107;-89
2022/12/24 12:02:51;;;;;;;20.35;10.65;;;24.80;69.30;;;;;;1831666;77;21114;-89
2022/12/24 12:05:28;;;;;;;14.23;8.10;;;24.80;69.30;;;;;;1893738;74;21130;-91
2022/12/24 12:08:17;;;;;;;11.85;6.53;;;24.80;69.50;;;;;;1896472;74;21101;-91
2022/12/24 12:10:50;;;;;;;9.65;7.15;;;24.80;69.60;;;;;;1881570;74;22079;-90
2022/12/24 12:13:37;;;;;;;10.53;6.50;;;24.70;69.80;;;;;;1858507;76;21138;-88
2022/12/24 12:16:27;;;;;;;10.63;6.28;;;24.70;70.00;;;;;;1819919;77;21165;-89
2022/12/24 12:19:04;;;;;;;13.30;6.75;;;24.60;70.10;;;;;;1821497;77;21121;-89
2022/12/24 12:21:50;;;;;;;10.63;6.40;;;24.60;70.30;;;;;;1839745;76;21140;-89
2022/12/24 12:24:36;;;;;;;15.38;6.95;;;24.60;70.40;;;;;;1820217;77;21214;-89
2022/12/24 12:27:29;;;;;;;14.30;6.50;;;24.60;70.50;;;;;;1855640;76;21197;-90
2022/12/24 12:30:08;;;;;;;12.30;6.42;;;24.50;70.50;;;;;;1869435;75;21134;-88
2022/12/24 12:32:58;;;;;;;12.13;6.20;;;24.50;70.80;;;;;;1901983;74;21071;-89
2022/12/24 12:35:32;;;;;;;11.93;6.35;;;24.40;70.90;;;;;;1886232;74;21193;-87
2022/12/24 12:38:11;;;;;;;12.00;6.03;;;24.40;71.10;;;;;;1887244;74;21208;-88
2022/12/24 12:40:47;;;;;;;9.63;5.80;;;24.40;71.00;;;;;;1891697;74;21077;-89
2022/12/24 12:43:48;;;;;;;8.03;5.10;;;24.30;71.30;;;;;;1893212;74;21116;-87
2022/12/24 12:46:36;;;;;;;9.73;5.47;;;24.30;71.20;;;;;;1888391;74;21261;-88
2022/12/24 12:49:18;;;;;;;9.93;5.28;;;24.20;71.10;;;;;;1893127;74;21051;-87
2022/12/24 12:52:23;;;;;;;12.90;5.62;;;24.20;70.80;;;;;;1890470;74;21147;-89
2022/12/24 12:55:02;;;;;;;8.65;4.70;;;24.20;71.60;;;;;;1858944;76;21232;-89
2022/12/24 12:57:36;;;;;;;12.10;5.53;;;24.20;72.70;;;;;;1858753;75;21270;-88
2022/12/24 13:00:11;;;;;;;9.15;5.17;;;24.20;71.90;;;;;;1821198;77;21175;-90
2022/12/24 13:03:13;;;;;;;7.33;5.17;;;24.20;71.80;;;;;;1866858;75;21164;-90
2022/12/24 13:05:58;;;;;;;10.30;5.25;;;24.10;71.70;;;;;;1881902;74;21212;-89
2022/12/24 13:11:38;;;;;;;8.78;5.40;;;24.00;72.40;;;;;;1865754;74;21838;-90
2022/12/24 13:15:02;;;;;;;;;;;;;;;;;;;;;
2022/12/24 13:24:54;;;;;;;7.08;4.97;;;23.80;72.90;;;;;;1763161;80;21236;-89
2022/12/24 13:27:32;;;;;;;13.28;5.55;;;23.80;73.10;;;;;;1766351;79;21185;-87
2022/12/24 13:30:07;;;;;;;9.90;5.50;;;23.80;73.10;;;;;;1636383;86;21817;-86
2022/12/24 13:32:41;;;;;;;10.32;5.28;;;23.70;73.30;;;;;;1608886;87;21773;-87
2022/12/24 13:35:22;;;;;;;12.60;6.12;;;23.70;74.20;;;;;;1627919;86;21209;-87
2022/12/24 13:37:56;;;;;;;7.85;5.15;;;23.70;73.50;;;;;;1632867;86;21308;-86
2022/12/24 13:40:36;;;;;;;9.08;5.17;;;23.60;73.60;;;;;;1632482;86;21772;-89
2022/12/24 13:43:11;;;;;;;9.40;5.00;;;23.60;73.60;;;;;;1632137;85;21333;-87
2022/12/24 13:45:44;;;;;;;9.93;5.65;;;23.60;73.60;;;;;;1638033;86;21260;-88